Time;durP1;ratioP1;P1;durP2;ratioP2;P2;SDS_P1;SDS_P2;PMS_P1;PMS_P2;Temp;Humidity;BMP_temperature;BMP_pressure;BME280_temperature;BME280_humidity;BME280_pressure;Samples;Min_cycle;Max_cycle;Signal;HPM_P1;HPM_P2
2023/03/16 00:03:37;;;;;;;20.77;12.82;;;;;;;;;;10317602;28;20085;-78
2023/03/16 00:08:38;;;;;;;22.45;13.02;;;;;;;;;;10308008;28;20054;-76
2023/03/16 00:13:38;;;;;;;19.05;11.43;;;;;;;;;;10322547;28;20057;-80
2023/03/16 00:18:39;;;;;;;21.45;11.07;;;;;;;;;;10324974;28;20062;-78
2023/03/16 00:23:41;;;;;;;19.73;10.32;;;;;;;;;;10310040;28;20134;-79
2023/03/16 00:28:41;;;;;;;17.27;10.65;;;;;;;;;;10305081;28;20090;-76
2023/03/16 00:33:42;;;;;;;16.13;9.63;;;;;;;;;;10319087;28;20141;-78
2023/03/16 00:38:48;;;;;;;15.27;8.80;;;;;;;;;;10301878;28;20090;-78
2023/03/16 00:43:50;;;;;;;15.68;9.93;;;;;;;;;;10321978;28;20062;-79
2023/03/16 00:48:52;;;;;;;15.60;8.95;;;;;;;;;;10304391;28;20045;-76
2023/03/16 00:53:53;;;;;;;15.75;10.00;;;;;;;;;;10289563;28;20451;-77
2023/03/16 00:58:56;;;;;;;19.65;9.95;;;;;;;;;;10280575;28;20054;-76
2023/03/16 01:03:58;;;;;;;17.55;9.95;;;;;;;;;;10314274;28;20108;-76
2023/03/16 01:08:59;;;;;;;21.23;11.43;;;;;;;;;;10298187;28;20069;-76
2023/03/16 01:14:01;;;;;;;16.98;8.70;;;;;;;;;;10298442;28;20148;-78
2023/03/16 01:19:02;;;;;;;20.10;10.25;;;;;;;;;;10298295;28;20062;-77
2023/03/16 01:24:04;;;;;;;19.05;10.40;;;;;;;;;;10316996;28;20050;-75
2023/03/16 01:29:05;;;;;;;17.98;10.15;;;;;;;;;;10294122;28;20168;-77
2023/03/16 01:34:05;;;;;;;17.38;9.73;;;;;;;;;;10312083;28;20057;-76
2023/03/16 01:39:06;;;;;;;17.73;10.02;;;;;;;;;;10312253;28;20088;-79
2023/03/16 01:44:21;;;;;;;22.67;10.68;;;;;;;;;;10312750;28;20047;-77
2023/03/16 01:49:28;;;;;;;19.52;9.20;;;;;;;;;;10288362;28;20050;-77
2023/03/16 01:54:32;;;;;;;23.88;10.50;;;;;;;;;;10314539;28;20137;-77
2023/03/16 01:59:42;;;;;;;24.75;11.00;;;;;;;;;;10313049;28;20120;-75
2023/03/16 02:04:57;;;;;;;24.75;10.18;;;;;;;;;;10288489;28;20073;-80
2023/03/16 02:10:01;;;;;;;18.70;9.95;;;;;;;;;;10291041;28;20042;-75
2023/03/16 02:15:03;;;;;;;20.25;10.00;;;;;;;;;;10294457;28;20117;-76
2023/03/16 02:20:16;;;;;;;20.90;9.70;;;;;;;;;;10314087;28;20073;-77
2023/03/16 02:25:17;;;;;;;16.38;9.30;;;;;;;;;;10312084;28;20110;-76
2023/03/16 02:30:20;;;;;;;18.83;9.40;;;;;;;;;;10293952;28;20088;-79
2023/03/16 02:35:33;;;;;;;19.80;8.82;;;;;;;;;;10293888;28;20062;-78
2023/03/16 02:40:37;;;;;;;17.75;8.82;;;;;;;;;;10285248;28;20069;-76
2023/03/16 02:45:52;;;;;;;21.17;9.32;;;;;;;;;;10290381;28;20117;-76
2023/03/16 02:50:55;;;;;;;21.42;9.90;;;;;;;;;;10308058;28;20416;-77
2023/03/16 02:55:57;;;;;;;18.85;9.07;;;;;;;;;;10276161;28;20136;-77
2023/03/16 03:01:00;;;;;;;17.77;9.80;;;;;;;;;;10313447;28;20046;-76
2023/03/16 03:06:03;;;;;;;17.63;10.10;;;;;;;;;;10305550;28;20050;-78
2023/03/16 03:11:09;;;;;;;21.20;9.40;;;;;;;;;;10301325;28;20066;-77
2023/03/16 03:16:11;;;;;;;21.98;10.07;;;;;;;;;;10301872;28;20049;-76
2023/03/16 03:21:12;;;;;;;20.02;10.45;;;;;;;;;;10309252;28;20047;-76
2023/03/16 03:26:14;;;;;;;18.90;9.60;;;;;;;;;;10310695;28;20422;-77
2023/03/16 03:31:17;;;;;;;21.05;10.18;;;;;;;;;;10277665;28;20058;-78
2023/03/16 03:36:18;;;;;;;19.75;9.80;;;;;;;;;;10313286;28;20046;-78
2023/03/16 03:41:21;;;;;;;18.90;9.70;;;;;;;;;;10296489;28;20042;-75
2023/03/16 03:46:22;;;;;;;16.63;9.00;;;;;;;;;;10298096;28;20161;-77
2023/03/16 03:51:24;;;;;;;17.02;8.55;;;;;;;;;;10296508;28;20046;-78
2023/03/16 03:56:34;;;;;;;16.30;7.78;;;;;;;;;;10295154;28;20054;-78
2023/03/16 04:01:34;;;;;;;15.50;8.73;;;;;;;;;;10288527;28;20112;-75
2023/03/16 04:06:35;;;;;;;17.05;8.80;;;;;;;;;;10310076;28;20090;-76
2023/03/16 04:11:36;;;;;;;16.02;8.45;;;;;;;;;;10293537;28;20054;-78
2023/03/16 04:16:36;;;;;;;16.00;8.73;;;;;;;;;;10308589;28;20062;-76
2023/03/16 04:21:47;;;;;;;15.93;8.48;;;;;;;;;;10311746;28;20046;-77
2023/03/16 04:26:53;;;;;;;13.55;7.63;;;;;;;;;;10295559;28;20093;-76
2023/03/16 04:31:54;;;;;;;18.45;8.90;;;;;;;;;;10296784;28;20047;-76
2023/03/16 04:36:59;;;;;;;16.00;8.40;;;;;;;;;;10281814;28;20062;-75
2023/03/16 04:42:00;;;;;;;15.27;7.95;;;;;;;;;;10295314;28;20058;-76
2023/03/16 04:47:01;;;;;;;19.73;8.63;;;;;;;;;;10318995;28;20065;-78
2023/03/16 04:52:09;;;;;;;15.77;8.32;;;;;;;;;;10289508;28;20053;-76
2023/03/16 04:57:10;;;;;;;15.05;8.55;;;;;;;;;;10320265;28;20085;-77
2023/03/16 05:02:18;;;;;;;14.52;7.10;;;;;;;;;;10322786;28;20055;-77
2023/03/16 05:07:20;;;;;;;14.07;7.32;;;;;;;;;;10317066;28;20592;-74
2023/03/16 05:12:25;;;;;;;14.73;7.35;;;;;;;;;;10287876;28;20046;-74
2023/03/16 05:17:32;;;;;;;16.05;8.32;;;;;;;;;;10300592;28;20073;-77
2023/03/16 05:22:36;;;;;;;20.05;8.32;;;;;;;;;;10305364;28;20046;-75
2023/03/16 05:27:57;;;;;;;19.48;8.68;;;;;;;;;;10305310;28;20058;-76
2023/03/16 05:33:20;;;;;;;16.50;8.60;;;;;;;;;;10313409;28;20052;-80
2023/03/16 05:38:26;;;;;;;17.98;9.80;;;;;;;;;;10332087;28;20050;-75
2023/03/16 05:43:28;;;;;;;20.95;9.48;;;;;;;;;;10344439;28;20042;-77
2023/03/16 05:48:28;;;;;;;16.00;8.70;;;;;;;;;;10317125;28;20086;-75
2023/03/16 05:53:32;;;;;;;18.55;9.63;;;;;;;;;;10314783;28;20077;-75
2023/03/16 05:58:41;;;;;;;22.83;10.07;;;;;;;;;;10319591;28;20046;-80
2023/03/16 06:03:43;;;;;;;20.58;10.20;;;;;;;;;;10325678;28;20121;-79
2023/03/16 06:08:49;;;;;;;22.10;10.60;;;;;;;;;;10332488;28;20038;-79
2023/03/16 06:13:56;;;;;;;19.95;11.13;;;;;;;;;;10327711;28;20047;-77
2023/03/16 06:18:57;;;;;;;22.45;11.55;;;;;;;;;;10326632;28;20101;-76
2023/03/16 06:23:58;;;;;;;18.88;9.07;;;;;;;;;;10356379;28;20041;-80
2023/03/16 06:28:59;;;;;;;18.77;8.93;;;;;;;;;;10332083;28;20042;-76
2023/03/16 06:34:01;;;;;;;17.48;9.68;;;;;;;;;;10303361;28;20193;-74
2023/03/16 06:39:03;;;;;;;17.85;9.13;;;;;;;;;;10308211;28;20050;-74
2023/03/16 06:44:15;;;;;;;15.80;8.70;;;;;;;;;;10316324;28;20058;-76
2023/03/16 06:49:26;;;;;;;13.85;7.75;;;;;;;;;;10283735;28;20046;-75
2023/03/16 06:54:28;;;;;;;16.15;9.13;;;;;;;;;;10298456;28;20101;-75
2023/03/16 06:59:28;;;;;;;13.48;8.40;;;;;;;;;;10295411;28;20050;-76
2023/03/16 07:04:33;;;;;;;13.43;7.78;;;;;;;;;;10314345;28;20851;-75
2023/03/16 07:09:33;;;;;;;12.95;8.40;;;;;;;;;;10314778;28;20055;-75
2023/03/16 07:14:36;;;;;;;11.43;7.18;;;;;;;;;;10294552;28;20620;-76
2023/03/16 07:19:37;;;;;;;;;;;;;;;;;;10312464;28;20066;-73
2023/03/16 07:24:39;;;;;;;10.48;7.07;;;;;;;;;;10295501;28;19983;-77
2023/03/16 07:29:40;;;;;;;13.48;7.45;;;;;;;;;;10314252;28;20141;-77
2023/03/16 07:34:42;;;;;;;8.82;6.18;;;;;;;;;;10295898;28;20050;-74
2023/03/16 07:39:43;;;;;;;8.32;5.20;;;;;;;;;;10311190;28;20042;-76
2023/03/16 07:44:50;;;;;;;11.00;6.20;;;;;;;;;;10277169;28;20062;-77
2023/03/16 07:49:52;;;;;;;9.60;6.00;;;;;;;;;;10311354;28;20054;-76
2023/03/16 07:54:53;;;;;;;11.82;6.10;;;;;;;;;;10283740;28;20057;-79
2023/03/16 07:59:58;;;;;;;10.95;6.68;;;;;;;;;;10294431;28;20096;-78
2023/03/16 08:04:59;;;;;;;11.88;6.78;;;;;;;;;;10293131;28;20073;-77
2023/03/16 08:10:00;;;;;;;7.97;5.10;;;;;;;;;;10294803;28;20077;-76
2023/03/16 08:15:08;;;;;;;8.93;5.00;;;;;;;;;;10310121;28;20061;-75
2023/03/16 08:20:13;;;;;;;6.23;4.17;;;;;;;;;;10300027;28;20057;-75
2023/03/16 08:25:14;;;;;;;12.63;6.85;;;;;;;;;;10313090;28;20078;-74
2023/03/16 08:30:25;;;;;;;6.75;3.90;;;;;;;;;;10293301;28;20050;-75
2023/03/16 08:35:45;;;;;;;6.20;3.30;;;;;;;;;;10321272;28;20177;-76
2023/03/16 08:40:49;;;;;;;5.07;3.67;;;;;;;;;;10281108;28;20070;-75
2023/03/16 08:45:54;;;;;;;8.43;4.03;;;;;;;;;;10301446;28;20105;-76
2023/03/16 08:51:02;;;;;;;6.35;4.60;;;;;;;;;;10295049;28;20054;-76
2023/03/16 08:56:05;;;;;;;6.05;3.85;;;;;;;;;;10299711;28;20089;-77
2023/03/16 09:01:11;;;;;;;6.40;4.03;;;;;;;;;;10297273;28;20096;-76
2023/03/16 09:06:14;;;;;;;5.90;3.75;;;;;;;;;;10298507;28;20061;-75
2023/03/16 09:11:20;;;;;;;5.15;3.58;;;;;;;;;;10299179;28;20100;-79
2023/03/16 09:16:24;;;;;;;6.03;3.20;;;;;;;;;;10294370;28;20050;-77
2023/03/16 09:21:27;;;;;;;3.30;2.78;;;;;;;;;;10314896;28;20045;-76
2023/03/16 09:26:28;;;;;;;4.53;2.97;;;;;;;;;;10295442;28;20062;-74
2023/03/16 09:31:29;;;;;;;4.43;3.22;;;;;;;;;;10300395;28;20046;-77
2023/03/16 09:36:32;;;;;;;5.78;2.95;;;;;;;;;;10299711;28;20503;-75
2023/03/16 09:41:55;;;;;;;6.18;3.20;;;;;;;;;;10318380;28;21087;-78
2023/03/16 09:46:59;;;;;;;2.90;2.58;;;;;;;;;;10312123;28;20046;-77
2023/03/16 09:52:22;;;;;;;5.07;2.75;;;;;;;;;;10291395;28;21101;-77
2023/03/16 09:57:42;;;;;;;5.88;3.25;;;;;;;;;;10309639;28;20077;-75
2023/03/16 10:02:55;;;;;;;5.20;3.00;;;;;;;;;;10296800;28;20514;-79
2023/03/16 10:08:19;;;;;;;4.43;2.70;;;;;;;;;;10313422;28;20054;-76
2023/03/16 10:13:24;;;;;;;3.97;2.72;;;;;;;;;;10315472;28;20053;-76
2023/03/16 10:18:34;;;;;;;4.95;2.55;;;;;;;;;;10313731;28;20052;-75
2023/03/16 10:23:36;;;;;;;3.78;2.75;;;;;;;;;;10312079;28;20053;-76
2023/03/16 10:28:38;;;;;;;3.63;2.60;;;;;;;;;;10314233;28;20069;-75
2023/03/16 10:33:41;;;;;;;3.00;2.25;;;;;;;;;;10292420;28;20049;-76
2023/03/16 10:38:45;;;;;;;3.38;2.13;;;;;;;;;;10311792;28;20058;-75
2023/03/16 10:43:49;;;;;;;3.92;2.00;;;;;;;;;;10310750;28;20584;-75
2023/03/16 10:48:59;;;;;;;3.13;1.85;;;;;;;;;;10280660;28;20971;-78
2023/03/16 10:54:13;;;;;;;3.53;1.90;;;;;;;;;;10280773;28;20463;-75
2023/03/16 10:59:24;;;;;;;4.97;2.22;;;;;;;;;;10290985;28;20046;-78
2023/03/16 11:04:31;;;;;;;2.35;2.03;;;;;;;;;;10313113;28;20042;-77
2023/03/16 11:09:32;;;;;;;2.90;2.10;;;;;;;;;;10296282;28;20126;-77
2023/03/16 11:14:36;;;;;;;2.08;1.83;;;;;;;;;;10295994;28;20064;-76
2023/03/16 11:19:44;;;;;;;4.00;2.33;;;;;;;;;;10311568;28;20047;-76
2023/03/16 11:25:05;;;;;;;2.55;1.73;;;;;;;;;;10313701;28;20053;-77
2023/03/16 11:30:12;;;;;;;2.17;1.55;;;;;;;;;;10291794;28;20054;-76
2023/03/16 11:35:14;;;;;;;3.20;1.60;;;;;;;;;;10295337;28;20183;-77
2023/03/16 11:40:22;;;;;;;3.72;2.10;;;;;;;;;;10295971;28;20605;-76
2023/03/16 11:45:23;;;;;;;4.30;1.75;;;;;;;;;;10298528;28;20561;-77
2023/03/16 11:50:32;;;;;;;2.63;2.05;;;;;;;;;;10314206;28;20053;-76
2023/03/16 11:55:40;;;;;;;3.33;2.20;;;;;;;;;;10302110;28;20066;-79
2023/03/16 12:00:59;;;;;;;2.53;1.95;;;;;;;;;;10314905;28;20479;-77
2023/03/16 12:06:20;;;;;;;2.53;1.90;;;;;;;;;;10296734;28;20515;-76
2023/03/16 12:11:26;;;;;;;3.88;2.20;;;;;;;;;;10311685;28;20510;-77
2023/03/16 12:16:45;;;;;;;3.35;2.10;;;;;;;;;;10278742;28;20050;-77
2023/03/16 12:21:48;;;;;;;2.47;2.00;;;;;;;;;;10309981;28;20157;-76
2023/03/16 12:26:49;;;;;;;2.23;1.90;;;;;;;;;;10292570;28;20450;-78
2023/03/16 12:32:13;;;;;;;2.35;1.85;;;;;;;;;;10308480;28;20051;-77
2023/03/16 12:37:22;;;;;;;3.05;1.70;;;;;;;;;;10292535;28;20154;-78
2023/03/16 12:42:25;;;;;;;1.48;1.38;;;;;;;;;;10291633;28;20050;-77
2023/03/16 12:47:38;;;;;;;2.38;1.80;;;;;;;;;;10291216;28;20149;-78
2023/03/16 12:52:43;;;;;;;1.90;1.67;;;;;;;;;;10308641;28;20050;-78
2023/03/16 12:57:45;;;;;;;2.50;2.00;;;;;;;;;;10271969;28;20129;-76
2023/03/16 13:02:50;;;;;;;3.00;2.40;;;;;;;;;;10297881;28;20131;-78
2023/03/16 13:08:02;;;;;;;3.97;2.30;;;;;;;;;;10310823;28;20069;-78
2023/03/16 13:13:07;;;;;;;3.78;2.63;;;;;;;;;;10314397;28;20164;-78
2023/03/16 13:18:13;;;;;;;2.50;2.30;;;;;;;;;;10314394;28;20050;-78
2023/03/16 13:23:22;;;;;;;4.45;2.60;;;;;;;;;;10297244;28;20113;-79
2023/03/16 13:28:25;;;;;;;2.88;2.58;;;;;;;;;;10316046;28;20141;-77
2023/03/16 13:33:27;;;;;;;3.83;3.05;;;;;;;;;;10316702;28;20046;-79
2023/03/16 13:38:27;;;;;;;3.42;2.60;;;;;;;;;;10313245;28;20053;-77
2023/03/16 13:43:36;;;;;;;3.85;2.78;;;;;;;;;;10298327;28;20105;-78
2023/03/16 13:48:39;;;;;;;3.40;2.50;;;;;;;;;;10316594;28;20112;-79
2023/03/16 13:53:42;;;;;;;3.15;2.40;;;;;;;;;;10315995;28;20086;-82
2023/03/16 13:58:47;;;;;;;2.58;2.10;;;;;;;;;;10315764;28;20046;-81
2023/03/16 14:03:48;;;;;;;2.97;2.20;;;;;;;;;;10297886;28;20932;-77
2023/03/16 14:08:51;;;;;;;2.90;2.30;;;;;;;;;;10314172;28;20046;-78
2023/03/16 14:13:53;;;;;;;2.88;2.30;;;;;;;;;;10300170;28;20586;-78
2023/03/16 14:18:55;;;;;;;2.90;2.25;;;;;;;;;;10311739;28;20622;-78
2023/03/16 14:24:04;;;;;;;2.92;2.28;;;;;;;;;;10297140;28;20050;-79
2023/03/16 14:29:13;;;;;;;2.65;2.40;;;;;;;;;;10303080;28;20545;-77
2023/03/16 14:34:20;;;;;;;2.58;2.20;;;;;;;;;;10291720;28;20054;-78
2023/03/16 14:39:26;;;;;;;5.13;2.40;;;;;;;;;;10298199;28;20054;-77
2023/03/16 14:44:30;;;;;;;4.18;2.65;;;;;;;;;;10318804;28;20046;-78
2023/03/16 14:49:36;;;;;;;3.25;2.15;;;;;;;;;;10278484;28;20054;-76
2023/03/16 14:54:36;;;;;;;3.33;2.15;;;;;;;;;;10295073;28;20521;-79
2023/03/16 14:59:38;;;;;;;4.40;2.53;;;;;;;;;;10310516;28;20558;-78
2023/03/16 15:04:40;;;;;;;2.72;2.35;;;;;;;;;;10296471;28;20491;-77
2023/03/16 15:09:44;;;;;;;2.95;2.05;;;;;;;;;;10313117;28;20053;-74
2023/03/16 15:20:05;;;;;;;2.53;2.15;;;;;;;;;;10341809;28;20030;-77
2023/03/16 15:25:19;;;;;;;3.08;1.88;;;;;;;;;;10319253;28;20061;-77
2023/03/16 15:30:21;;;;;;;3.80;2.38;;;;;;;;;;10323708;28;20050;-76
2023/03/16 15:35:22;;;;;;;3.23;2.50;;;;;;;;;;10326305;28;20088;-78
2023/03/16 15:40:24;;;;;;;2.15;1.90;;;;;;;;;;10313374;28;20073;-78
2023/03/16 15:45:26;;;;;;;2.57;2.30;;;;;;;;;;10341735;28;20054;-77
2023/03/16 15:50:31;;;;;;;2.92;2.38;;;;;;;;;;10343076;28;20073;-80
2023/03/16 15:55:42;;;;;;;3.03;2.30;;;;;;;;;;10323607;28;20065;-77
2023/03/16 16:00:44;;;;;;;3.15;2.53;;;;;;;;;;10347716;28;20038;-78
2023/03/16 16:05:44;;;;;;;3.25;2.70;;;;;;;;;;10334612;28;20149;-78
2023/03/16 16:10:46;;;;;;;5.45;2.92;;;;;;;;;;10359953;28;20115;-78
2023/03/16 16:15:47;;;;;;;4.30;2.60;;;;;;;;;;10348433;28;20054;-79
2023/03/16 16:20:48;;;;;;;3.20;2.90;;;;;;;;;;10331476;28;20054;-78
2023/03/16 16:25:50;;;;;;;4.10;3.35;;;;;;;;;;10324160;28;20046;-75
2023/03/16 16:30:50;;;;;;;5.43;3.28;;;;;;;;;;10337173;28;20049;-78
2023/03/16 16:35:52;;;;;;;5.75;4.05;;;;;;;;;;10308541;28;20054;-76
2023/03/16 16:40:56;;;;;;;5.10;3.30;;;;;;;;;;10290882;28;20045;-77
2023/03/16 16:46:03;;;;;;;4.95;3.63;;;;;;;;;;10308937;28;20141;-79
2023/03/16 16:51:07;;;;;;;5.80;3.50;;;;;;;;;;10317476;28;20038;-77
2023/03/16 16:56:16;;;;;;;5.07;3.67;;;;;;;;;;10317289;28;20043;-77
2023/03/16 17:01:31;;;;;;;5.50;3.58;;;;;;;;;;10315729;28;20120;-78
2023/03/16 17:06:31;;;;;;;5.47;4.30;;;;;;;;;;10315317;28;20054;-76
2023/03/16 17:11:32;;;;;;;5.15;3.95;;;;;;;;;;10325487;28;20046;-77
2023/03/16 17:16:35;;;;;;;5.38;4.10;;;;;;;;;;10330320;28;20369;-78
2023/03/16 17:21:36;;;;;;;;;;;;;;;;;;10332608;28;20047;-77
2023/03/16 17:26:40;;;;;;;4.93;4.07;;;;;;;;;;10314917;28;19936;-75
2023/03/16 17:31:42;;;;;;;4.95;4.18;;;;;;;;;;10320860;28;20065;-76
2023/03/16 17:36:43;;;;;;;6.15;4.22;;;;;;;;;;10316054;28;20052;-77
2023/03/16 17:41:44;;;;;;;5.68;4.47;;;;;;;;;;10310602;28;20050;-77
2023/03/16 17:46:45;;;;;;;5.38;3.88;;;;;;;;;;10298138;28;20069;-75
2023/03/16 17:51:48;;;;;;;8.25;5.40;;;;;;;;;;10320528;28;20042;-76
2023/03/16 17:56:50;;;;;;;6.63;4.20;;;;;;;;;;10304772;28;20117;-76
2023/03/16 18:01:51;;;;;;;4.47;3.78;;;;;;;;;;10314610;28;20046;-75
2023/03/16 18:06:53;;;;;;;6.10;4.32;;;;;;;;;;10315059;28;20588;-74
2023/03/16 18:11:53;;;;;;;5.90;3.58;;;;;;;;;;10315663;28;20054;-77
2023/03/16 18:16:53;;;;;;;4.03;3.22;;;;;;;;;;10295415;28;20662;-77
2023/03/16 18:21:54;;;;;;;5.40;3.90;;;;;;;;;;10294442;28;20050;-78
2023/03/16 18:26:54;;;;;;;6.20;4.25;;;;;;;;;;10294011;28;20533;-75
2023/03/16 18:31:55;;;;;;;6.37;4.40;;;;;;;;;;10314615;28;20038;-76
2023/03/16 18:36:58;;;;;;;5.90;4.43;;;;;;;;;;10296085;28;20305;-75
2023/03/16 18:42:01;;;;;;;5.80;4.10;;;;;;;;;;10312166;28;20315;-77
2023/03/16 18:47:02;;;;;;;4.57;3.70;;;;;;;;;;10310260;28;20172;-76
2023/03/16 18:52:05;;;;;;;5.07;3.60;;;;;;;;;;10298178;28;20076;-76
2023/03/16 18:57:06;;;;;;;;;;;;;;;;;;10301594;28;20057;-74
2023/03/16 19:02:23;;;;;;;6.82;4.80;;;;;;;;;;10324496;28;19922;-75
2023/03/16 19:07:35;;;;;;;7.13;4.97;;;;;;;;;;10314964;28;20069;-76
2023/03/16 19:12:36;;;;;;;9.20;5.53;;;;;;;;;;10316472;28;21194;-76
2023/03/16 19:17:37;;;;;;;7.85;5.07;;;;;;;;;;10340405;28;20668;-78
2023/03/16 19:22:37;;;;;;;5.82;4.40;;;;;;;;;;10348554;28;20046;-76
2023/03/16 19:27:38;;;;;;;8.35;5.15;;;;;;;;;;10360800;28;20064;-77
2023/03/16 19:32:38;;;;;;;7.63;4.90;;;;;;;;;;10364458;28;20454;-77
2023/03/16 19:37:39;;;;;;;7.18;4.45;;;;;;;;;;10348272;28;20054;-78
2023/03/16 19:42:41;;;;;;;8.38;4.88;;;;;;;;;;10313819;28;20062;-80
2023/03/16 19:47:41;;;;;;;7.95;4.63;;;;;;;;;;10299673;28;20577;-76
2023/03/16 19:52:42;;;;;;;7.47;4.40;;;;;;;;;;10306072;28;20137;-76
2023/03/16 19:57:43;;;;;;;7.07;5.18;;;;;;;;;;10310442;28;20054;-76
2023/03/16 20:02:44;;;;;;;6.00;4.25;;;;;;;;;;10325361;28;20042;-75
2023/03/16 20:07:45;;;;;;;5.93;3.83;;;;;;;;;;10318249;28;20070;-76
2023/03/16 20:12:46;;;;;;;5.70;4.03;;;;;;;;;;10302832;28;20131;-75
2023/03/16 20:17:48;;;;;;;5.15;3.60;;;;;;;;;;10333841;28;20057;-78
2023/03/16 20:22:49;;;;;;;4.55;3.30;;;;;;;;;;10328608;28;20137;-76
2023/03/16 20:28:04;;;;;;;4.50;3.55;;;;;;;;;;10351441;28;20069;-78
2023/03/16 20:34:20;;;;;;;7.28;3.67;;;;;;;;;;10347657;28;20050;-78
2023/03/16 20:40:16;;;;;;;5.20;3.80;;;;;;;;;;10365518;28;20042;-78
2023/03/16 20:46:03;;;;;;;4.65;3.70;;;;;;;;;;10346708;28;20050;-78
2023/03/16 20:51:36;;;;;;;5.13;3.63;;;;;;;;;;10321960;28;20038;-77
2023/03/16 21:02:35;;;;;;;4.63;3.42;;;;;;;;;;10352562;28;20164;-79
2023/03/16 21:08:22;;;;;;;;;;;;;;;;;;10343364;28;20057;-80
2023/03/16 21:13:32;;;;;;;5.43;3.85;;;;;;;;;;10350837;28;19952;-78
2023/03/16 21:18:58;;;;;;;5.65;3.55;;;;;;;;;;10348570;28;20188;-80
2023/03/16 21:24:08;;;;;;;5.20;3.47;;;;;;;;;;10331573;28;20065;-79
2023/03/16 21:29:23;;;;;;;4.38;3.30;;;;;;;;;;10335071;28;20054;-77
2023/03/16 21:34:45;;;;;;;4.47;3.58;;;;;;;;;;10333553;28;20054;-83
2023/03/16 21:39:51;;;;;;;5.93;4.07;;;;;;;;;;10321107;28;20034;-81
2023/03/16 21:44:54;;;;;;;5.32;4.07;;;;;;;;;;10311344;28;20046;-79
2023/03/16 21:50:00;;;;;;;5.97;4.30;;;;;;;;;;10313878;28;20050;-81
2023/03/16 21:55:03;;;;;;;;;;;;;;;;;;10320854;28;20054;-79
2023/03/16 22:00:18;;;;;;;5.80;3.97;;;;;;;;;;10334518;28;19929;-81
2023/03/16 22:05:44;;;;;;;5.43;3.60;;;;;;;;;;10349551;28;20062;-81
2023/03/16 22:10:51;;;;;;;5.72;4.28;;;;;;;;;;10353118;28;20090;-80
2023/03/16 22:16:07;;;;;;;7.03;4.75;;;;;;;;;;10331179;28;20133;-78
2023/03/16 22:21:26;;;;;;;6.68;4.47;;;;;;;;;;10304850;28;20046;-78
2023/03/16 22:26:27;;;;;;;7.47;4.82;;;;;;;;;;10321059;28;20651;-78
2023/03/16 22:31:34;;;;;;;6.13;4.07;;;;;;;;;;10295691;28;20169;-77
2023/03/16 22:36:37;;;;;;;7.47;4.18;;;;;;;;;;10296527;28;20169;-78
2023/03/16 22:41:38;;;;;;;5.40;3.17;;;;;;;;;;10349841;28;20050;-77
2023/03/16 22:46:39;;;;;;;5.60;3.35;;;;;;;;;;10354042;28;20133;-79
2023/03/16 22:51:40;;;;;;;4.33;2.80;;;;;;;;;;10291181;28;20054;-78
2023/03/16 22:56:41;;;;;;;5.35;3.22;;;;;;;;;;10289330;28;20297;-75
2023/03/16 23:01:43;;;;;;;4.28;2.88;;;;;;;;;;10306269;28;20066;-77
2023/03/16 23:17:27;;;;;;;4.97;3.40;;;;;;;;;;12839716;22;2830965;-77
2023/03/16 23:22:28;;;;;;;7.27;3.80;;;;;;;;;;12853066;23;20327;-76
2023/03/16 23:27:29;;;;;;;4.65;3.22;;;;;;;;;;12851497;23;20019;-77
2023/03/16 23:32:29;;;;;;;4.88;3.20;;;;;;;;;;12847129;23;20019;-77
2023/03/16 23:37:30;;;;;;;5.70;3.30;;;;;;;;;;12845577;23;20016;-77
2023/03/16 23:42:30;;;;;;;5.88;3.50;;;;;;;;;;12846096;23;20452;-80
2023/03/16 23:47:31;;;;;;;6.57;3.58;;;;;;;;;;12844409;23;20038;-76
2023/03/16 23:52:32;;;;;;;6.05;3.83;;;;;;;;;;12847509;23;20020;-76
2023/03/16 23:57:32;;;;;;;4.82;3.60;;;;;;;;;;12845425;23;20016;-74
